Milliken, CO (80543)

3:00 PM MDT on May 29, 2017 (GMT -0600)
Milliken Elementary | | Change Station
Active Advisory: Flood Advisory Active Notice: Flood Advisory

Elev 4777 ft 40.33 °N, 104.87 °W | Updated 52 seconds ago

Partly Cloudy
Partly Cloudy
73.1 °F
Feels Like 77 °F
N
9.0
Wind Variable Wind from NE

Today
High -- | Low -- °F
--% Chance of Precip.
Yesterday
High -- | Low -- °F
Precip. -- in
Pressure 30.10 in
Visibility 10.0 miles
Clouds Few 6000 ft
Heat Index 77 °F
Dew Point 47 °F
Humidity 40%
Rainfall 0.00 in
Snow Depth Not available.
5:32 AM 8:21 PM
Waxing Crescent, 22% visible
METAR KFNL 292056Z AUTO 10003KT 10SM FEW060 22/04 A3021 RMK AO2 LTG DSNT SW-NW SLP192 T02170044 58009
Pressure 30.10 in
Visibility 10.0 miles
Clouds Few 6000 ft
Heat Index 77 °F
Dew Point 47 °F
Humidity 40%
Rainfall 0.00 in
Snow Depth Not available.
5:32 AM 8:21 PM
Waxing Crescent, 22% visible
METAR KFNL 292056Z AUTO 10003KT 10SM FEW060 22/04 A3021 RMK AO2 LTG DSNT SW-NW SLP192 T02170044 58009

Get Your Daily Forecast Email!

Thanks for signing up!

Be on the lookout for a verification email in your inbox.

You'll start receiving severe weather alerts in your inbox..

×

10-Day Weather Forecast

Almanac

Astronomy

May. 29, 2017 Rise Set
Actual Time
Civil Twilight
Nautical Twilight
Astronomical Twilight
Moon
Length of Visible Light
Length of Day
Tomorrow will be .
, % of the Moon is Illuminated

Today's Extremes

State Highs State Lows

Community

WunderPhotos

Category 6

Welcome to Category 6. This is the collective home for Weather Underground's featured writeups by Dr. Jeff Masters (right), Bob Henson (left), Chris Burt, and other regular contributors.

Nearby

Air Quality

  Air Quality AQ Index Pollutant
Not available.

Snow Depth

Station Depth Elevation

Earthquake Activity

City Distance Mag. Time & Date
Minimum magnitude displayed is 2.5.

Coastal Water Temperatures

Place Temperature

Stations

Nearby Weather Stations

Station Location Temp. Windchill Dew Point Humidity Wind Precip. Elev Updated Type
                   

Watches & Warnings

Flood Advisory
Issued: 9:25 AM MDT May. 29, 2017 – National Weather Service

The flood advisory continues for
the Cache la poudre river near Greeley.
* Until Tuesday morning.
* At 8:30 am Monday the stage was 7.2 feet.
* Flood stage is 8.0 feet.
* Forecast... the river will remain steady near 7.2 feet this afternoon.
* Impact... at 7.0 feet... there is minor overbank flow into low lying
areas along the Cache la poudre river between Windsor and Greeley.


Lat... Lon 4047 10495 4046 10474 4043 10459 4040 10462
4043 10474 4043 10488